sensor_id;sensor_type;location;lat;lon;timestamp;P1;durP1;ratioP1;P2;durP2;ratioP2
6111;SDS011;3086;48.802;9.394;2022-10-16T00:00:03;7.23;;;2.90;;
6111;SDS011;3086;48.802;9.394;2022-10-16T00:03:26;3.87;;;2.40;;
6111;SDS011;3086;48.802;9.394;2022-10-16T00:06:47;5.40;;;2.90;;
6111;SDS011;3086;48.802;9.394;2022-10-16T00:10:10;3.17;;;2.80;;
6111;SDS011;3086;48.802;9.394;2022-10-16T00:13:32;6.57;;;2.70;;
6111;SDS011;3086;48.802;9.394;2022-10-16T00:16:54;2.30;;;2.10;;
6111;SDS011;3086;48.802;9.394;2022-10-16T00:20:16;8.80;;;2.43;;
6111;SDS011;3086;48.802;9.394;2022-10-16T00:23:37;3.20;;;2.20;;
6111;SDS011;3086;48.802;9.394;2022-10-16T00:27:00;8.87;;;2.70;;
6111;SDS011;3086;48.802;9.394;2022-10-16T00:30:22;9.80;;;2.50;;
6111;SDS011;3086;48.802;9.394;2022-10-16T00:33:44;4.87;;;2.50;;
6111;SDS011;3086;48.802;9.394;2022-10-16T00:37:05;4.53;;;2.77;;
6111;SDS011;3086;48.802;9.394;2022-10-16T00:40:27;9.17;;;2.93;;
6111;SDS011;3086;48.802;9.394;2022-10-16T00:43:51;6.53;;;2.80;;
6111;SDS011;3086;48.802;9.394;2022-10-16T00:47:15;4.47;;;2.73;;
6111;SDS011;3086;48.802;9.394;2022-10-16T00:50:40;4.27;;;2.47;;
6111;SDS011;3086;48.802;9.394;2022-10-16T00:54:04;3.30;;;2.30;;
6111;SDS011;3086;48.802;9.394;2022-10-16T00:57:30;5.93;;;2.97;;
6111;SDS011;3086;48.802;9.394;2022-10-16T01:00:53;3.23;;;2.47;;
6111;SDS011;3086;48.802;9.394;2022-10-16T01:04:14;3.90;;;2.53;;
6111;SDS011;3086;48.802;9.394;2022-10-16T01:07:38;3.67;;;2.40;;
6111;SDS011;3086;48.802;9.394;2022-10-16T01:11:04;3.73;;;2.67;;
6111;SDS011;3086;48.802;9.394;2022-10-16T01:14:34;4.83;;;2.30;;
6111;SDS011;3086;48.802;9.394;2022-10-16T01:18:03;5.77;;;2.40;;
6111;SDS011;3086;48.802;9.394;2022-10-16T01:21:27;5.80;;;2.53;;
6111;SDS011;3086;48.802;9.394;2022-10-16T01:24:50;4.70;;;2.60;;
6111;SDS011;3086;48.802;9.394;2022-10-16T01:28:16;2.93;;;2.50;;
6111;SDS011;3086;48.802;9.394;2022-10-16T01:31:39;4.03;;;2.40;;
6111;SDS011;3086;48.802;9.394;2022-10-16T01:35:02;8.97;;;2.67;;
6111;SDS011;3086;48.802;9.394;2022-10-16T01:38:29;8.40;;;2.77;;
6111;SDS011;3086;48.802;9.394;2022-10-16T01:41:54;4.47;;;2.27;;
6111;SDS011;3086;48.802;9.394;2022-10-16T01:45:18;2.67;;;2.47;;
6111;SDS011;3086;48.802;9.394;2022-10-16T01:48:41;5.97;;;2.03;;
6111;SDS011;3086;48.802;9.394;2022-10-16T01:52:04;5.47;;;2.40;;
6111;SDS011;3086;48.802;9.394;2022-10-16T01:55:28;3.67;;;2.03;;
6111;SDS011;3086;48.802;9.394;2022-10-16T01:58:53;2.30;;;2.10;;
6111;SDS011;3086;48.802;9.394;2022-10-16T02:02:18;2.43;;;2.00;;
6111;SDS011;3086;48.802;9.394;2022-10-16T02:05:41;3.87;;;2.30;;
6111;SDS011;3086;48.802;9.394;2022-10-16T02:09:06;6.20;;;2.40;;
6111;SDS011;3086;48.802;9.394;2022-10-16T02:12:28;2.87;;;2.20;;
6111;SDS011;3086;48.802;9.394;2022-10-16T02:15:52;7.63;;;2.23;;
6111;SDS011;3086;48.802;9.394;2022-10-16T02:19:16;4.23;;;2.13;;
6111;SDS011;3086;48.802;9.394;2022-10-16T02:22:41;3.47;;;2.00;;
6111;SDS011;3086;48.802;9.394;2022-10-16T02:26:06;4.53;;;2.00;;
6111;SDS011;3086;48.802;9.394;2022-10-16T02:29:29;2.20;;;2.00;;
6111;SDS011;3086;48.802;9.394;2022-10-16T02:32:51;4.00;;;1.90;;
6111;SDS011;3086;48.802;9.394;2022-10-16T02:36:14;5.33;;;2.10;;
6111;SDS011;3086;48.802;9.394;2022-10-16T02:39:36;4.80;;;2.00;;
6111;SDS011;3086;48.802;9.394;2022-10-16T02:42:58;7.03;;;2.03;;
6111;SDS011;3086;48.802;9.394;2022-10-16T02:46:19;2.53;;;2.10;;
6111;SDS011;3086;48.802;9.394;2022-10-16T02:49:41;3.37;;;2.10;;
6111;SDS011;3086;48.802;9.394;2022-10-16T02:53:04;6.43;;;2.10;;
6111;SDS011;3086;48.802;9.394;2022-10-16T02:56:25;3.10;;;2.03;;
6111;SDS011;3086;48.802;9.394;2022-10-16T02:59:47;3.93;;;1.97;;
6111;SDS011;3086;48.802;9.394;2022-10-16T03:03:08;2.97;;;1.80;;
6111;SDS011;3086;48.802;9.394;2022-10-16T03:06:30;3.00;;;2.00;;
6111;SDS011;3086;48.802;9.394;2022-10-16T03:09:53;4.23;;;1.83;;
6111;SDS011;3086;48.802;9.394;2022-10-16T03:13:14;4.47;;;2.10;;
6111;SDS011;3086;48.802;9.394;2022-10-16T03:16:36;6.90;;;1.90;;
6111;SDS011;3086;48.802;9.394;2022-10-16T03:19:57;4.10;;;2.03;;
6111;SDS011;3086;48.802;9.394;2022-10-16T03:23:19;2.90;;;2.23;;
6111;SDS011;3086;48.802;9.394;2022-10-16T03:26:41;3.73;;;2.07;;
6111;SDS011;3086;48.802;9.394;2022-10-16T03:30:03;3.47;;;2.00;;
6111;SDS011;3086;48.802;9.394;2022-10-16T03:33:25;4.33;;;1.90;;
6111;SDS011;3086;48.802;9.394;2022-10-16T03:36:47;6.93;;;2.30;;
6111;SDS011;3086;48.802;9.394;2022-10-16T03:40:09;4.50;;;1.90;;
6111;SDS011;3086;48.802;9.394;2022-10-16T03:43:32;3.73;;;1.90;;
6111;SDS011;3086;48.802;9.394;2022-10-16T03:46:53;2.70;;;2.07;;
6111;SDS011;3086;48.802;9.394;2022-10-16T03:50:15;3.70;;;2.20;;
6111;SDS011;3086;48.802;9.394;2022-10-16T03:53:37;2.87;;;2.10;;
6111;SDS011;3086;48.802;9.394;2022-10-16T03:56:58;4.33;;;2.40;;
6111;SDS011;3086;48.802;9.394;2022-10-16T04:00:21;3.10;;;2.20;;
6111;SDS011;3086;48.802;9.394;2022-10-16T04:03:42;5.67;;;2.23;;
6111;SDS011;3086;48.802;9.394;2022-10-16T04:07:04;7.63;;;2.30;;
6111;SDS011;3086;48.802;9.394;2022-10-16T04:10:26;6.60;;;2.27;;
6111;SDS011;3086;48.802;9.394;2022-10-16T04:13:47;8.83;;;2.27;;
6111;SDS011;3086;48.802;9.394;2022-10-16T04:17:10;6.83;;;2.40;;
6111;SDS011;3086;48.802;9.394;2022-10-16T04:20:32;4.17;;;2.50;;
6111;SDS011;3086;48.802;9.394;2022-10-16T04:23:53;6.63;;;2.50;;
6111;SDS011;3086;48.802;9.394;2022-10-16T04:27:15;5.20;;;2.70;;
6111;SDS011;3086;48.802;9.394;2022-10-16T04:30:37;5.67;;;2.23;;
6111;SDS011;3086;48.802;9.394;2022-10-16T04:34:00;5.97;;;2.20;;
6111;SDS011;3086;48.802;9.394;2022-10-16T04:37:23;13.47;;;2.60;;
6111;SDS011;3086;48.802;9.394;2022-10-16T04:40:45;10.80;;;2.77;;
6111;SDS011;3086;48.802;9.394;2022-10-16T04:44:06;5.83;;;2.80;;
6111;SDS011;3086;48.802;9.394;2022-10-16T04:47:28;3.57;;;2.43;;
6111;SDS011;3086;48.802;9.394;2022-10-16T04:50:51;9.20;;;2.50;;
6111;SDS011;3086;48.802;9.394;2022-10-16T04:54:12;4.53;;;2.60;;
6111;SDS011;3086;48.802;9.394;2022-10-16T04:57:34;2.40;;;2.20;;
6111;SDS011;3086;48.802;9.394;2022-10-16T05:00:55;3.17;;;2.40;;
6111;SDS011;3086;48.802;9.394;2022-10-16T05:04:17;7.53;;;2.67;;
6111;SDS011;3086;48.802;9.394;2022-10-16T05:07:40;3.63;;;2.33;;
6111;SDS011;3086;48.802;9.394;2022-10-16T05:11:01;10.80;;;2.73;;
6111;SDS011;3086;48.802;9.394;2022-10-16T05:14:23;5.00;;;2.83;;
6111;SDS011;3086;48.802;9.394;2022-10-16T05:17:44;3.17;;;2.07;;
6111;SDS011;3086;48.802;9.394;2022-10-16T05:21:06;5.23;;;2.33;;
6111;SDS011;3086;48.802;9.394;2022-10-16T05:24:29;7.83;;;2.90;;
6111;SDS011;3086;48.802;9.394;2022-10-16T05:27:50;6.10;;;2.80;;
6111;SDS011;3086;48.802;9.394;2022-10-16T05:31:12;9.03;;;2.30;;
6111;SDS011;3086;48.802;9.394;2022-10-16T05:34:33;3.83;;;2.67;;
6111;SDS011;3086;48.802;9.394;2022-10-16T05:37:55;8.47;;;2.60;;
6111;SDS011;3086;48.802;9.394;2022-10-16T05:41:18;6.33;;;3.20;;
6111;SDS011;3086;48.802;9.394;2022-10-16T05:44:41;5.33;;;2.77;;
6111;SDS011;3086;48.802;9.394;2022-10-16T05:48:03;8.47;;;2.47;;
6111;SDS011;3086;48.802;9.394;2022-10-16T05:51:25;6.77;;;2.73;;
6111;SDS011;3086;48.802;9.394;2022-10-16T05:54:46;5.53;;;3.10;;
6111;SDS011;3086;48.802;9.394;2022-10-16T05:58:09;8.13;;;2.87;;
6111;SDS011;3086;48.802;9.394;2022-10-16T06:01:30;7.53;;;2.80;;
6111;SDS011;3086;48.802;9.394;2022-10-16T06:04:52;7.43;;;3.23;;
6111;SDS011;3086;48.802;9.394;2022-10-16T06:08:14;6.03;;;2.97;;
6111;SDS011;3086;48.802;9.394;2022-10-16T06:11:36;5.67;;;2.80;;
6111;SDS011;3086;48.802;9.394;2022-10-16T06:14:59;11.83;;;3.30;;
6111;SDS011;3086;48.802;9.394;2022-10-16T06:18:20;6.37;;;2.63;;
6111;SDS011;3086;48.802;9.394;2022-10-16T06:21:42;3.37;;;2.83;;
6111;SDS011;3086;48.802;9.394;2022-10-16T06:25:03;3.60;;;2.93;;
6111;SDS011;3086;48.802;9.394;2022-10-16T06:28:25;4.37;;;2.63;;
6111;SDS011;3086;48.802;9.394;2022-10-16T06:31:48;6.63;;;3.97;;
6111;SDS011;3086;48.802;9.394;2022-10-16T06:35:10;4.03;;;2.77;;
6111;SDS011;3086;48.802;9.394;2022-10-16T06:38:31;15.77;;;3.43;;
6111;SDS011;3086;48.802;9.394;2022-10-16T06:41:53;6.10;;;2.83;;
6111;SDS011;3086;48.802;9.394;2022-10-16T06:45:15;7.33;;;4.20;;
6111;SDS011;3086;48.802;9.394;2022-10-16T06:48:37;5.67;;;2.60;;
6111;SDS011;3086;48.802;9.394;2022-10-16T06:51:59;4.73;;;2.40;;
6111;SDS011;3086;48.802;9.394;2022-10-16T06:55:21;6.43;;;2.37;;
6111;SDS011;3086;48.802;9.394;2022-10-16T06:58:43;4.83;;;2.73;;
6111;SDS011;3086;48.802;9.394;2022-10-16T07:02:04;5.90;;;2.97;;
6111;SDS011;3086;48.802;9.394;2022-10-16T07:05:28;8.13;;;2.40;;
6111;SDS011;3086;48.802;9.394;2022-10-16T07:08:49;5.07;;;2.53;;
6111;SDS011;3086;48.802;9.394;2022-10-16T07:12:11;12.37;;;2.80;;
6111;SDS011;3086;48.802;9.394;2022-10-16T07:15:33;3.23;;;2.53;;
6111;SDS011;3086;48.802;9.394;2022-10-16T07:18:55;6.03;;;2.10;;
6111;SDS011;3086;48.802;9.394;2022-10-16T07:22:20;7.17;;;2.80;;
6111;SDS011;3086;48.802;9.394;2022-10-16T07:25:41;4.73;;;2.30;;
6111;SDS011;3086;48.802;9.394;2022-10-16T07:29:03;5.70;;;2.97;;
6111;SDS011;3086;48.802;9.394;2022-10-16T07:32:24;7.23;;;2.40;;
6111;SDS011;3086;48.802;9.394;2022-10-16T07:35:49;6.47;;;2.50;;
6111;SDS011;3086;48.802;9.394;2022-10-16T07:39:13;5.80;;;3.07;;
6111;SDS011;3086;48.802;9.394;2022-10-16T07:42:34;7.50;;;2.47;;
6111;SDS011;3086;48.802;9.394;2022-10-16T07:45:56;7.23;;;3.00;;
6111;SDS011;3086;48.802;9.394;2022-10-16T07:49:17;4.17;;;2.73;;
6111;SDS011;3086;48.802;9.394;2022-10-16T07:52:39;4.17;;;2.50;;
6111;SDS011;3086;48.802;9.394;2022-10-16T07:56:03;5.87;;;2.63;;
6111;SDS011;3086;48.802;9.394;2022-10-16T07:59:25;3.77;;;2.37;;
6111;SDS011;3086;48.802;9.394;2022-10-16T08:02:47;5.87;;;2.80;;
6111;SDS011;3086;48.802;9.394;2022-10-16T08:06:08;5.57;;;2.53;;
6111;SDS011;3086;48.802;9.394;2022-10-16T08:09:30;4.40;;;2.40;;
6111;SDS011;3086;48.802;9.394;2022-10-16T08:12:53;6.07;;;2.53;;
6111;SDS011;3086;48.802;9.394;2022-10-16T08:16:14;5.03;;;2.73;;
6111;SDS011;3086;48.802;9.394;2022-10-16T08:19:37;7.90;;;2.70;;
6111;SDS011;3086;48.802;9.394;2022-10-16T08:22:59;6.10;;;2.60;;
6111;SDS011;3086;48.802;9.394;2022-10-16T08:26:21;5.00;;;2.60;;
6111;SDS011;3086;48.802;9.394;2022-10-16T08:29:44;2.77;;;2.57;;
6111;SDS011;3086;48.802;9.394;2022-10-16T08:33:06;12.67;;;2.70;;
6111;SDS011;3086;48.802;9.394;2022-10-16T08:36:27;5.23;;;2.23;;
6111;SDS011;3086;48.802;9.394;2022-10-16T08:39:49;5.03;;;2.50;;
6111;SDS011;3086;48.802;9.394;2022-10-16T08:43:14;4.47;;;2.10;;
6111;SDS011;3086;48.802;9.394;2022-10-16T08:46:50;8.17;;;3.00;;
6111;SDS011;3086;48.802;9.394;2022-10-16T08:50:18;3.60;;;2.13;;
6111;SDS011;3086;48.802;9.394;2022-10-16T08:53:44;5.87;;;2.47;;
6111;SDS011;3086;48.802;9.394;2022-10-16T08:57:09;7.57;;;2.50;;
6111;SDS011;3086;48.802;9.394;2022-10-16T09:00:32;2.47;;;2.20;;
6111;SDS011;3086;48.802;9.394;2022-10-16T09:04:03;7.20;;;3.60;;
6111;SDS011;3086;48.802;9.394;2022-10-16T09:07:32;5.57;;;4.00;;
6111;SDS011;3086;48.802;9.394;2022-10-16T09:10:58;8.63;;;2.70;;
6111;SDS011;3086;48.802;9.394;2022-10-16T09:14:35;5.63;;;2.60;;
6111;SDS011;3086;48.802;9.394;2022-10-16T09:18:03;4.43;;;2.30;;
6111;SDS011;3086;48.802;9.394;2022-10-16T09:21:30;3.77;;;2.50;;
6111;SDS011;3086;48.802;9.394;2022-10-16T09:24:53;3.03;;;2.30;;
6111;SDS011;3086;48.802;9.394;2022-10-16T09:28:15;3.97;;;1.87;;
6111;SDS011;3086;48.802;9.394;2022-10-16T09:31:37;6.97;;;1.93;;
6111;SDS011;3086;48.802;9.394;2022-10-16T09:34:58;1.70;;;1.43;;
6111;SDS011;3086;48.802;9.394;2022-10-16T09:38:22;2.77;;;1.37;;
6111;SDS011;3086;48.802;9.394;2022-10-16T09:41:45;5.73;;;1.80;;
6111;SDS011;3086;48.802;9.394;2022-10-16T09:45:19;2.83;;;1.20;;
6111;SDS011;3086;48.802;9.394;2022-10-16T09:48:43;3.57;;;1.80;;
6111;SDS011;3086;48.802;9.394;2022-10-16T09:52:05;1.63;;;1.53;;
6111;SDS011;3086;48.802;9.394;2022-10-16T09:55:32;1.73;;;1.40;;
6111;SDS011;3086;48.802;9.394;2022-10-16T09:58:57;2.43;;;1.63;;
6111;SDS011;3086;48.802;9.394;2022-10-16T10:02:19;4.27;;;1.60;;
6111;SDS011;3086;48.802;9.394;2022-10-16T10:05:47;3.53;;;1.90;;
6111;SDS011;3086;48.802;9.394;2022-10-16T10:09:15;2.23;;;1.80;;
6111;SDS011;3086;48.802;9.394;2022-10-16T10:12:40;4.73;;;1.80;;
6111;SDS011;3086;48.802;9.394;2022-10-16T10:16:02;2.53;;;1.57;;
6111;SDS011;3086;48.802;9.394;2022-10-16T10:19:23;4.60;;;1.40;;
6111;SDS011;3086;48.802;9.394;2022-10-16T10:22:45;7.27;;;2.00;;
6111;SDS011;3086;48.802;9.394;2022-10-16T10:26:07;2.57;;;1.50;;
6111;SDS011;3086;48.802;9.394;2022-10-16T10:29:37;2.20;;;1.50;;
6111;SDS011;3086;48.802;9.394;2022-10-16T10:33:09;2.57;;;2.00;;
6111;SDS011;3086;48.802;9.394;2022-10-16T10:36:37;2.20;;;1.50;;
6111;SDS011;3086;48.802;9.394;2022-10-16T10:40:01;1.73;;;1.63;;
6111;SDS011;3086;48.802;9.394;2022-10-16T10:43:29;5.20;;;3.73;;
6111;SDS011;3086;48.802;9.394;2022-10-16T10:47:04;2.37;;;1.90;;
6111;SDS011;3086;48.802;9.394;2022-10-16T10:50:31;4.03;;;1.70;;
6111;SDS011;3086;48.802;9.394;2022-10-16T10:54:01;1.30;;;1.20;;
6111;SDS011;3086;48.802;9.394;2022-10-16T10:57:32;5.17;;;1.73;;
6111;SDS011;3086;48.802;9.394;2022-10-16T11:00:57;3.20;;;1.73;;
6111;SDS011;3086;48.802;9.394;2022-10-16T11:04:28;4.40;;;1.53;;
6111;SDS011;3086;48.802;9.394;2022-10-16T11:08:00;3.00;;;1.80;;
6111;SDS011;3086;48.802;9.394;2022-10-16T11:11:24;2.90;;;1.27;;
6111;SDS011;3086;48.802;9.394;2022-10-16T11:14:48;1.60;;;1.50;;
6111;SDS011;3086;48.802;9.394;2022-10-16T11:18:12;5.83;;;1.50;;
6111;SDS011;3086;48.802;9.394;2022-10-16T11:21:39;4.60;;;1.60;;
6111;SDS011;3086;48.802;9.394;2022-10-16T11:25:06;4.90;;;1.63;;
6111;SDS011;3086;48.802;9.394;2022-10-16T11:28:34;1.60;;;1.47;;
6111;SDS011;3086;48.802;9.394;2022-10-16T11:31:59;2.90;;;1.47;;
6111;SDS011;3086;48.802;9.394;2022-10-16T11:35:28;2.87;;;1.60;;
6111;SDS011;3086;48.802;9.394;2022-10-16T11:38:58;4.33;;;1.60;;
6111;SDS011;3086;48.802;9.394;2022-10-16T11:42:26;1.47;;;1.30;;
6111;SDS011;3086;48.802;9.394;2022-10-16T11:45:53;2.90;;;1.40;;
6111;SDS011;3086;48.802;9.394;2022-10-16T11:49:18;1.80;;;1.37;;
6111;SDS011;3086;48.802;9.394;2022-10-16T11:52:43;3.53;;;1.53;;
6111;SDS011;3086;48.802;9.394;2022-10-16T11:56:08;1.53;;;1.37;;
6111;SDS011;3086;48.802;9.394;2022-10-16T11:59:33;3.50;;;1.40;;
6111;SDS011;3086;48.802;9.394;2022-10-16T12:03:00;3.67;;;1.50;;
6111;SDS011;3086;48.802;9.394;2022-10-16T12:06:29;3.67;;;1.50;;
6111;SDS011;3086;48.802;9.394;2022-10-16T12:09:52;1.80;;;1.43;;
6111;SDS011;3086;48.802;9.394;2022-10-16T12:13:31;2.80;;;1.57;;
6111;SDS011;3086;48.802;9.394;2022-10-16T12:16:54;3.47;;;1.80;;
6111;SDS011;3086;48.802;9.394;2022-10-16T12:23:58;1.60;;;1.20;;
6111;SDS011;3086;48.802;9.394;2022-10-16T12:27:23;1.80;;;1.20;;
6111;SDS011;3086;48.802;9.394;2022-10-16T12:30:53;3.67;;;1.67;;
6111;SDS011;3086;48.802;9.394;2022-10-16T12:34:20;1.87;;;1.70;;
6111;SDS011;3086;48.802;9.394;2022-10-16T12:37:44;1.60;;;1.50;;
6111;SDS011;3086;48.802;9.394;2022-10-16T12:41:06;5.27;;;1.63;;
6111;SDS011;3086;48.802;9.394;2022-10-16T12:44:31;2.27;;;1.80;;
6111;SDS011;3086;48.802;9.394;2022-10-16T12:47:55;5.33;;;1.80;;
6111;SDS011;3086;48.802;9.394;2022-10-16T12:51:22;1.97;;;1.87;;
6111;SDS011;3086;48.802;9.394;2022-10-16T12:54:45;1.53;;;1.43;;
6111;SDS011;3086;48.802;9.394;2022-10-16T12:58:09;1.60;;;1.50;;
6111;SDS011;3086;48.802;9.394;2022-10-16T13:01:42;2.53;;;1.40;;
6111;SDS011;3086;48.802;9.394;2022-10-16T13:05:23;5.60;;;1.70;;
6111;SDS011;3086;48.802;9.394;2022-10-16T13:09:02;3.23;;;1.50;;
6111;SDS011;3086;48.802;9.394;2022-10-16T13:12:35;3.07;;;1.60;;
6111;SDS011;3086;48.802;9.394;2022-10-16T13:16:12;4.13;;;1.60;;
6111;SDS011;3086;48.802;9.394;2022-10-16T13:19:40;3.57;;;1.50;;
6111;SDS011;3086;48.802;9.394;2022-10-16T13:23:11;2.93;;;1.60;;
6111;SDS011;3086;48.802;9.394;2022-10-16T13:26:38;2.80;;;1.80;;
6111;SDS011;3086;48.802;9.394;2022-10-16T13:30:09;3.60;;;2.00;;
6111;SDS011;3086;48.802;9.394;2022-10-16T13:33:34;1.73;;;1.60;;
6111;SDS011;3086;48.802;9.394;2022-10-16T13:36:57;3.53;;;1.50;;
6111;SDS011;3086;48.802;9.394;2022-10-16T13:40:22;2.90;;;1.80;;
6111;SDS011;3086;48.802;9.394;2022-10-16T13:43:45;6.60;;;1.77;;
6111;SDS011;3086;48.802;9.394;2022-10-16T13:47:12;2.53;;;1.70;;
6111;SDS011;3086;48.802;9.394;2022-10-16T13:50:36;3.10;;;1.63;;
6111;SDS011;3086;48.802;9.394;2022-10-16T13:53:58;3.17;;;1.50;;
6111;SDS011;3086;48.802;9.394;2022-10-16T13:57:22;3.80;;;1.70;;
6111;SDS011;3086;48.802;9.394;2022-10-16T14:00:52;2.63;;;1.60;;
6111;SDS011;3086;48.802;9.394;2022-10-16T14:04:15;2.73;;;1.53;;
6111;SDS011;3086;48.802;9.394;2022-10-16T14:07:36;4.77;;;1.70;;
6111;SDS011;3086;48.802;9.394;2022-10-16T14:10:59;3.00;;;1.43;;
6111;SDS011;3086;48.802;9.394;2022-10-16T14:14:23;3.93;;;1.80;;
6111;SDS011;3086;48.802;9.394;2022-10-16T14:17:45;1.33;;;1.23;;
6111;SDS011;3086;48.802;9.394;2022-10-16T14:21:11;3.37;;;1.50;;
6111;SDS011;3086;48.802;9.394;2022-10-16T14:24:34;3.13;;;1.40;;
6111;SDS011;3086;48.802;9.394;2022-10-16T14:27:57;3.27;;;1.70;;
6111;SDS011;3086;48.802;9.394;2022-10-16T14:31:24;2.27;;;1.83;;
6111;SDS011;3086;48.802;9.394;2022-10-16T14:34:52;1.93;;;1.77;;
6111;SDS011;3086;48.802;9.394;2022-10-16T14:38:17;4.13;;;1.80;;
6111;SDS011;3086;48.802;9.394;2022-10-16T14:41:40;1.93;;;1.67;;
6111;SDS011;3086;48.802;9.394;2022-10-16T14:45:07;3.63;;;1.70;;
6111;SDS011;3086;48.802;9.394;2022-10-16T14:48:31;2.87;;;1.50;;
6111;SDS011;3086;48.802;9.394;2022-10-16T14:51:53;2.80;;;1.87;;
6111;SDS011;3086;48.802;9.394;2022-10-16T14:55:15;2.30;;;1.70;;
6111;SDS011;3086;48.802;9.394;2022-10-16T14:58:37;2.70;;;1.57;;
6111;SDS011;3086;48.802;9.394;2022-10-16T15:01:58;2.83;;;1.60;;
6111;SDS011;3086;48.802;9.394;2022-10-16T15:05:21;3.20;;;1.90;;
6111;SDS011;3086;48.802;9.394;2022-10-16T15:08:44;3.77;;;1.73;;
6111;SDS011;3086;48.802;9.394;2022-10-16T15:12:06;8.93;;;1.97;;
6111;SDS011;3086;48.802;9.394;2022-10-16T15:15:32;3.03;;;1.63;;
6111;SDS011;3086;48.802;9.394;2022-10-16T15:18:55;5.23;;;2.00;;
6111;SDS011;3086;48.802;9.394;2022-10-16T15:22:18;5.23;;;2.07;;
6111;SDS011;3086;48.802;9.394;2022-10-16T15:25:44;3.53;;;1.80;;
6111;SDS011;3086;48.802;9.394;2022-10-16T15:29:06;5.70;;;2.30;;
6111;SDS011;3086;48.802;9.394;2022-10-16T15:32:28;5.93;;;2.10;;
6111;SDS011;3086;48.802;9.394;2022-10-16T15:35:50;5.50;;;2.43;;
6111;SDS011;3086;48.802;9.394;2022-10-16T15:39:15;5.70;;;2.07;;
6111;SDS011;3086;48.802;9.394;2022-10-16T15:42:37;7.97;;;2.60;;
6111;SDS011;3086;48.802;9.394;2022-10-16T15:45:59;6.63;;;2.10;;
6111;SDS011;3086;48.802;9.394;2022-10-16T15:49:22;6.13;;;2.20;;
6111;SDS011;3086;48.802;9.394;2022-10-16T15:52:44;9.43;;;2.50;;
6111;SDS011;3086;48.802;9.394;2022-10-16T15:56:07;4.57;;;2.50;;
6111;SDS011;3086;48.802;9.394;2022-10-16T15:59:30;8.63;;;2.77;;
6111;SDS011;3086;48.802;9.394;2022-10-16T16:02:52;5.70;;;2.37;;
6111;SDS011;3086;48.802;9.394;2022-10-16T16:06:14;9.43;;;2.77;;
6111;SDS011;3086;48.802;9.394;2022-10-16T16:09:35;11.20;;;2.90;;
6111;SDS011;3086;48.802;9.394;2022-10-16T16:12:58;11.63;;;2.87;;
6111;SDS011;3086;48.802;9.394;2022-10-16T16:16:20;8.83;;;2.60;;
6111;SDS011;3086;48.802;9.394;2022-10-16T16:19:42;9.07;;;2.80;;
6111;SDS011;3086;48.802;9.394;2022-10-16T16:23:03;9.53;;;2.63;;
6111;SDS011;3086;48.802;9.394;2022-10-16T16:26:25;7.93;;;2.43;;
6111;SDS011;3086;48.802;9.394;2022-10-16T16:29:49;7.70;;;3.40;;
6111;SDS011;3086;48.802;9.394;2022-10-16T16:33:10;14.43;;;3.03;;
6111;SDS011;3086;48.802;9.394;2022-10-16T16:36:32;9.97;;;2.87;;
6111;SDS011;3086;48.802;9.394;2022-10-16T16:39:54;10.03;;;2.97;;
6111;SDS011;3086;48.802;9.394;2022-10-16T16:43:18;16.67;;;3.10;;
6111;SDS011;3086;48.802;9.394;2022-10-16T16:46:41;9.50;;;3.27;;
6111;SDS011;3086;48.802;9.394;2022-10-16T16:50:03;13.53;;;3.77;;
6111;SDS011;3086;48.802;9.394;2022-10-16T16:53:26;12.17;;;3.17;;
6111;SDS011;3086;48.802;9.394;2022-10-16T16:56:48;6.40;;;3.27;;
6111;SDS011;3086;48.802;9.394;2022-10-16T17:00:10;13.97;;;3.30;;
6111;SDS011;3086;48.802;9.394;2022-10-16T17:03:34;8.00;;;2.97;;
6111;SDS011;3086;48.802;9.394;2022-10-16T17:06:56;7.73;;;2.77;;
6111;SDS011;3086;48.802;9.394;2022-10-16T17:10:17;7.00;;;2.70;;
6111;SDS011;3086;48.802;9.394;2022-10-16T17:13:39;18.93;;;3.20;;
6111;SDS011;3086;48.802;9.394;2022-10-16T17:17:00;8.13;;;2.80;;
6111;SDS011;3086;48.802;9.394;2022-10-16T17:20:23;7.70;;;3.03;;
6111;SDS011;3086;48.802;9.394;2022-10-16T17:23:45;15.70;;;3.40;;
6111;SDS011;3086;48.802;9.394;2022-10-16T17:27:06;9.77;;;3.60;;
6111;SDS011;3086;48.802;9.394;2022-10-16T17:30:29;11.67;;;3.70;;
6111;SDS011;3086;48.802;9.394;2022-10-16T17:33:50;8.60;;;3.57;;
6111;SDS011;3086;48.802;9.394;2022-10-16T17:37:13;6.60;;;3.20;;
6111;SDS011;3086;48.802;9.394;2022-10-16T17:40:35;9.70;;;3.70;;
6111;SDS011;3086;48.802;9.394;2022-10-16T17:43:56;9.73;;;3.57;;
6111;SDS011;3086;48.802;9.394;2022-10-16T17:47:18;9.77;;;3.73;;
6111;SDS011;3086;48.802;9.394;2022-10-16T17:50:39;11.97;;;3.43;;
6111;SDS011;3086;48.802;9.394;2022-10-16T17:54:03;10.40;;;3.23;;
6111;SDS011;3086;48.802;9.394;2022-10-16T17:57:24;9.67;;;3.83;;
6111;SDS011;3086;48.802;9.394;2022-10-16T18:00:46;7.33;;;3.60;;
6111;SDS011;3086;48.802;9.394;2022-10-16T18:04:08;6.77;;;3.40;;
6111;SDS011;3086;48.802;9.394;2022-10-16T18:07:32;8.37;;;2.93;;
6111;SDS011;3086;48.802;9.394;2022-10-16T18:10:54;7.37;;;2.87;;
6111;SDS011;3086;48.802;9.394;2022-10-16T18:14:16;4.97;;;2.80;;
6111;SDS011;3086;48.802;9.394;2022-10-16T18:17:38;14.90;;;3.23;;
6111;SDS011;3086;48.802;9.394;2022-10-16T18:21:00;6.57;;;3.00;;
6111;SDS011;3086;48.802;9.394;2022-10-16T18:24:23;7.60;;;3.40;;
6111;SDS011;3086;48.802;9.394;2022-10-16T18:27:47;12.10;;;3.27;;
6111;SDS011;3086;48.802;9.394;2022-10-16T18:31:10;7.13;;;2.70;;
6111;SDS011;3086;48.802;9.394;2022-10-16T18:34:33;7.40;;;3.10;;
6111;SDS011;3086;48.802;9.394;2022-10-16T18:37:56;11.63;;;3.10;;
6111;SDS011;3086;48.802;9.394;2022-10-16T18:41:19;13.20;;;3.40;;
6111;SDS011;3086;48.802;9.394;2022-10-16T18:44:42;10.77;;;3.60;;
6111;SDS011;3086;48.802;9.394;2022-10-16T18:48:04;9.40;;;3.60;;
6111;SDS011;3086;48.802;9.394;2022-10-16T18:51:26;8.90;;;3.10;;
6111;SDS011;3086;48.802;9.394;2022-10-16T18:54:49;5.20;;;3.00;;
6111;SDS011;3086;48.802;9.394;2022-10-16T18:58:10;8.57;;;3.10;;
6111;SDS011;3086;48.802;9.394;2022-10-16T19:01:34;10.03;;;3.10;;
6111;SDS011;3086;48.802;9.394;2022-10-16T19:04:57;6.90;;;2.70;;
6111;SDS011;3086;48.802;9.394;2022-10-16T19:08:19;4.63;;;2.80;;
6111;SDS011;3086;48.802;9.394;2022-10-16T19:11:40;9.63;;;3.13;;
6111;SDS011;3086;48.802;9.394;2022-10-16T19:15:02;5.53;;;4.07;;
6111;SDS011;3086;48.802;9.394;2022-10-16T19:18:25;7.87;;;3.87;;
6111;SDS011;3086;48.802;9.394;2022-10-16T19:21:47;16.37;;;4.40;;
6111;SDS011;3086;48.802;9.394;2022-10-16T19:25:15;6.67;;;3.50;;
6111;SDS011;3086;48.802;9.394;2022-10-16T19:28:36;9.10;;;3.73;;
6111;SDS011;3086;48.802;9.394;2022-10-16T19:31:58;12.57;;;4.23;;
6111;SDS011;3086;48.802;9.394;2022-10-16T19:35:23;12.60;;;4.30;;
6111;SDS011;3086;48.802;9.394;2022-10-16T19:38:45;9.20;;;4.00;;
6111;SDS011;3086;48.802;9.394;2022-10-16T19:42:07;11.50;;;4.10;;
6111;SDS011;3086;48.802;9.394;2022-10-16T19:45:28;9.77;;;5.10;;
6111;SDS011;3086;48.802;9.394;2022-10-16T19:48:52;10.37;;;5.87;;
6111;SDS011;3086;48.802;9.394;2022-10-16T19:52:16;9.67;;;4.93;;
6111;SDS011;3086;48.802;9.394;2022-10-16T19:55:38;15.07;;;9.60;;
6111;SDS011;3086;48.802;9.394;2022-10-16T19:58:59;13.23;;;7.13;;
6111;SDS011;3086;48.802;9.394;2022-10-16T20:02:21;12.40;;;6.73;;
6111;SDS011;3086;48.802;9.394;2022-10-16T20:05:49;29.53;;;17.37;;
6111;SDS011;3086;48.802;9.394;2022-10-16T20:09:12;27.43;;;21.20;;
6111;SDS011;3086;48.802;9.394;2022-10-16T20:12:34;22.87;;;10.33;;
6111;SDS011;3086;48.802;9.394;2022-10-16T20:15:55;15.77;;;11.30;;
6111;SDS011;3086;48.802;9.394;2022-10-16T20:19:17;17.67;;;7.93;;
6111;SDS011;3086;48.802;9.394;2022-10-16T20:22:39;14.10;;;4.17;;
6111;SDS011;3086;48.802;9.394;2022-10-16T20:26:01;9.83;;;3.60;;
6111;SDS011;3086;48.802;9.394;2022-10-16T20:29:23;6.90;;;4.03;;
6111;SDS011;3086;48.802;9.394;2022-10-16T20:32:45;9.70;;;3.70;;
6111;SDS011;3086;48.802;9.394;2022-10-16T20:36:09;9.97;;;5.23;;
6111;SDS011;3086;48.802;9.394;2022-10-16T20:39:31;9.80;;;4.97;;
6111;SDS011;3086;48.802;9.394;2022-10-16T20:42:54;18.87;;;6.93;;
6111;SDS011;3086;48.802;9.394;2022-10-16T20:46:16;7.57;;;4.10;;
6111;SDS011;3086;48.802;9.394;2022-10-16T20:49:39;12.33;;;3.73;;
6111;SDS011;3086;48.802;9.394;2022-10-16T20:53:01;7.03;;;3.53;;
6111;SDS011;3086;48.802;9.394;2022-10-16T20:56:23;6.60;;;3.30;;
6111;SDS011;3086;48.802;9.394;2022-10-16T20:59:46;13.73;;;3.40;;
6111;SDS011;3086;48.802;9.394;2022-10-16T21:03:09;12.47;;;3.53;;